sensor_id;sensor_type;location;lat;lon;timestamp;pressure;altitude;pressure_sealevel;temperature;humidity
77431;BME280;66498;48.564;19.272;2023-12-29T00:01:50;97858.44;;;-0.44;100.00
77431;BME280;66498;48.564;19.272;2023-12-29T00:04:16;97855.81;;;-0.35;100.00
77431;BME280;66498;48.564;19.272;2023-12-29T00:06:41;97849.03;;;-0.36;100.00
77431;BME280;66498;48.564;19.272;2023-12-29T00:09:07;97852.13;;;-0.32;100.00
77431;BME280;66498;48.564;19.272;2023-12-29T00:11:33;97852.09;;;-0.22;100.00
77431;BME280;66498;48.564;19.272;2023-12-29T00:13:59;97846.13;;;-0.23;100.00
77431;BME280;66498;48.564;19.272;2023-12-29T00:16:27;97857.91;;;-0.20;100.00
77431;BME280;66498;48.564;19.272;2023-12-29T00:18:53;97850.09;;;-0.11;100.00
77431;BME280;66498;48.564;19.272;2023-12-29T00:21:18;97842.50;;;-0.12;100.00
77431;BME280;66498;48.564;19.272;2023-12-29T00:23:44;97825.78;;;-0.08;100.00
77431;BME280;66498;48.564;19.272;2023-12-29T00:26:09;97828.00;;;-0.13;100.00
77431;BME280;66498;48.564;19.272;2023-12-29T00:28:34;97821.06;;;-0.13;100.00
77431;BME280;66498;48.564;19.272;2023-12-29T00:31:02;97816.72;;;-0.12;100.00
77431;BME280;66498;48.564;19.272;2023-12-29T00:33:28;97827.56;;;-0.09;100.00
77431;BME280;66498;48.564;19.272;2023-12-29T00:35:53;97823.50;;;-0.11;100.00
77431;BME280;66498;48.564;19.272;2023-12-29T00:38:18;97838.38;;;-0.05;100.00
77431;BME280;66498;48.564;19.272;2023-12-29T00:40:44;97834.66;;;0.07;100.00
77431;BME280;66498;48.564;19.272;2023-12-29T00:43:09;97833.75;;;0.16;100.00
77431;BME280;66498;48.564;19.272;2023-12-29T00:45:35;97831.69;;;0.02;100.00
77431;BME280;66498;48.564;19.272;2023-12-29T00:48:02;97833.91;;;-0.03;100.00
77431;BME280;66498;48.564;19.272;2023-12-29T00:50:27;97832.56;;;0.11;100.00
77431;BME280;66498;48.564;19.272;2023-12-29T00:52:53;97826.81;;;0.17;100.00
77431;BME280;66498;48.564;19.272;2023-12-29T00:55:19;97828.94;;;0.39;100.00
77431;BME280;66498;48.564;19.272;2023-12-29T00:57:44;97835.72;;;0.58;100.00
77431;BME280;66498;48.564;19.272;2023-12-29T01:00:13;97836.47;;;0.33;100.00
77431;BME280;66498;48.564;19.272;2023-12-29T01:02:39;97833.00;;;0.42;100.00
77431;BME280;66498;48.564;19.272;2023-12-29T01:05:05;97837.88;;;0.45;100.00
77431;BME280;66498;48.564;19.272;2023-12-29T01:07:31;97839.22;;;0.31;100.00
77431;BME280;66498;48.564;19.272;2023-12-29T01:09:56;97835.72;;;0.22;100.00
77431;BME280;66498;48.564;19.272;2023-12-29T01:12:22;97833.31;;;0.21;100.00
77431;BME280;66498;48.564;19.272;2023-12-29T01:14:47;97833.03;;;0.24;100.00
77431;BME280;66498;48.564;19.272;2023-12-29T01:17:12;97829.09;;;0.20;100.00
77431;BME280;66498;48.564;19.272;2023-12-29T01:19:38;97830.13;;;0.09;100.00
77431;BME280;66498;48.564;19.272;2023-12-29T01:22:03;97827.41;;;0.11;100.00
77431;BME280;66498;48.564;19.272;2023-12-29T01:24:30;97829.56;;;-0.03;100.00
77431;BME280;66498;48.564;19.272;2023-12-29T01:26:55;97823.19;;;-0.08;100.00
77431;BME280;66498;48.564;19.272;2023-12-29T01:29:21;97827.72;;;0.08;100.00
77431;BME280;66498;48.564;19.272;2023-12-29T01:31:46;97819.44;;;0.04;100.00
77431;BME280;66498;48.564;19.272;2023-12-29T01:34:12;97812.06;;;0.09;100.00
77431;BME280;66498;48.564;19.272;2023-12-29T01:36:38;97806.69;;;-0.15;100.00
77431;BME280;66498;48.564;19.272;2023-12-29T01:39:03;97804.78;;;-0.13;100.00
77431;BME280;66498;48.564;19.272;2023-12-29T01:41:29;97803.88;;;-0.04;100.00
77431;BME280;66498;48.564;19.272;2023-12-29T01:44:18;97801.97;;;-0.02;100.00
77431;BME280;66498;48.564;19.272;2023-12-29T01:46:49;97797.88;;;0.13;100.00
77431;BME280;66498;48.564;19.272;2023-12-29T01:49:16;97794.28;;;0.24;100.00
77431;BME280;66498;48.564;19.272;2023-12-29T01:51:44;97793.97;;;0.27;100.00
77431;BME280;66498;48.564;19.272;2023-12-29T01:54:10;97791.09;;;0.30;100.00
77431;BME280;66498;48.564;19.272;2023-12-29T01:56:37;97790.56;;;0.27;100.00
77431;BME280;66498;48.564;19.272;2023-12-29T01:59:03;97786.03;;;0.20;100.00
77431;BME280;66498;48.564;19.272;2023-12-29T02:01:29;97787.41;;;0.33;100.00
77431;BME280;66498;48.564;19.272;2023-12-29T02:03:56;97786.97;;;0.19;100.00
77431;BME280;66498;48.564;19.272;2023-12-29T02:06:22;97783.03;;;0.33;100.00
77431;BME280;66498;48.564;19.272;2023-12-29T02:08:48;97792.44;;;0.34;100.00
77431;BME280;66498;48.564;19.272;2023-12-29T02:11:14;97787.66;;;0.47;100.00
77431;BME280;66498;48.564;19.272;2023-12-29T02:13:40;97778.16;;;0.48;100.00
77431;BME280;66498;48.564;19.272;2023-12-29T02:16:38;97790.84;;;0.67;100.00
77431;BME280;66498;48.564;19.272;2023-12-29T02:19:04;97797.59;;;0.60;100.00
77431;BME280;66498;48.564;19.272;2023-12-29T02:21:34;97791.94;;;0.57;100.00
77431;BME280;66498;48.564;19.272;2023-12-29T02:23:59;97795.09;;;0.68;100.00
77431;BME280;66498;48.564;19.272;2023-12-29T02:26:27;97780.72;;;0.74;100.00
77431;BME280;66498;48.564;19.272;2023-12-29T02:29:00;97774.16;;;0.54;100.00
77431;BME280;66498;48.564;19.272;2023-12-29T02:31:30;97769.06;;;0.44;100.00
77431;BME280;66498;48.564;19.272;2023-12-29T02:33:57;97769.41;;;0.41;100.00
77431;BME280;66498;48.564;19.272;2023-12-29T02:36:28;97765.25;;;0.48;100.00
77431;BME280;66498;48.564;19.272;2023-12-29T02:38:57;97759.81;;;0.59;100.00
77431;BME280;66498;48.564;19.272;2023-12-29T02:41:22;97756.31;;;0.42;100.00
77431;BME280;66498;48.564;19.272;2023-12-29T02:43:49;97760.47;;;0.35;100.00
77431;BME280;66498;48.564;19.272;2023-12-29T02:46:15;97760.47;;;0.35;100.00
77431;BME280;66498;48.564;19.272;2023-12-29T02:48:40;97761.50;;;0.42;100.00
77431;BME280;66498;48.564;19.272;2023-12-29T02:51:06;97758.41;;;0.39;100.00
77431;BME280;66498;48.564;19.272;2023-12-29T02:53:33;97750.47;;;0.40;100.00
77431;BME280;66498;48.564;19.272;2023-12-29T02:55:59;97757.03;;;0.53;100.00
77431;BME280;66498;48.564;19.272;2023-12-29T02:58:24;97748.75;;;0.41;100.00
77431;BME280;66498;48.564;19.272;2023-12-29T03:00:50;97750.84;;;0.45;100.00
77431;BME280;66498;48.564;19.272;2023-12-29T03:03:15;97753.91;;;0.41;100.00
77431;BME280;66498;48.564;19.272;2023-12-29T03:05:40;97746.88;;;0.51;100.00
77431;BME280;66498;48.564;19.272;2023-12-29T03:08:06;97754.06;;;0.47;100.00
77431;BME280;66498;48.564;19.272;2023-12-29T03:10:31;97755.66;;;0.40;100.00
77431;BME280;66498;48.564;19.272;2023-12-29T03:12:57;97758.22;;;0.58;100.00
77431;BME280;66498;48.564;19.272;2023-12-29T03:15:22;97747.38;;;0.55;100.00
77431;BME280;66498;48.564;19.272;2023-12-29T03:17:48;97746.19;;;0.49;100.00
77431;BME280;66498;48.564;19.272;2023-12-29T03:20:13;97751.75;;;0.36;100.00
77431;BME280;66498;48.564;19.272;2023-12-29T03:22:39;97746.66;;;0.44;100.00
77431;BME280;66498;48.564;19.272;2023-12-29T03:25:04;97756.16;;;0.70;100.00
77431;BME280;66498;48.564;19.272;2023-12-29T03:27:30;97749.38;;;0.69;100.00
77431;BME280;66498;48.564;19.272;2023-12-29T03:29:55;97755.56;;;0.50;100.00
77431;BME280;66498;48.564;19.272;2023-12-29T03:32:21;97754.94;;;0.56;100.00
77431;BME280;66498;48.564;19.272;2023-12-29T03:34:46;97756.13;;;0.62;100.00
77431;BME280;66498;48.564;19.272;2023-12-29T03:37:12;97749.31;;;0.61;100.00
77431;BME280;66498;48.564;19.272;2023-12-29T03:39:37;97746.94;;;0.67;100.00
77431;BME280;66498;48.564;19.272;2023-12-29T03:42:03;97751.25;;;0.59;100.00
77431;BME280;66498;48.564;19.272;2023-12-29T03:44:28;97746.28;;;0.39;100.00
77431;BME280;66498;48.564;19.272;2023-12-29T03:46:53;97755.59;;;0.32;100.00
77431;BME280;66498;48.564;19.272;2023-12-29T03:49:19;97759.81;;;0.59;100.00
77431;BME280;66498;48.564;19.272;2023-12-29T03:51:45;97756.06;;;0.54;100.00
77431;BME280;66498;48.564;19.272;2023-12-29T03:54:11;97745.03;;;0.43;100.00
77431;BME280;66498;48.564;19.272;2023-12-29T03:56:37;97740.72;;;0.26;100.00
77431;BME280;66498;48.564;19.272;2023-12-29T03:59:02;97725.53;;;0.23;100.00
77431;BME280;66498;48.564;19.272;2023-12-29T04:01:27;97721.31;;;0.22;100.00
77431;BME280;66498;48.564;19.272;2023-12-29T04:03:53;97738.03;;;0.36;100.00
77431;BME280;66498;48.564;19.272;2023-12-29T04:06:19;97734.66;;;0.35;100.00
77431;BME280;66498;48.564;19.272;2023-12-29T04:08:44;97737.03;;;0.55;100.00
77431;BME280;66498;48.564;19.272;2023-12-29T04:11:10;97747.59;;;0.43;100.00
77431;BME280;66498;48.564;19.272;2023-12-29T04:13:36;97726.75;;;0.37;100.00
77431;BME280;66498;48.564;19.272;2023-12-29T04:16:01;97724.97;;;0.37;100.00
77431;BME280;66498;48.564;19.272;2023-12-29T04:18:29;97733.34;;;0.31;100.00
77431;BME280;66498;48.564;19.272;2023-12-29T04:20:54;97730.78;;;0.39;100.00
77431;BME280;66498;48.564;19.272;2023-12-29T04:23:20;97737.59;;;0.75;100.00
77431;BME280;66498;48.564;19.272;2023-12-29T04:25:47;97753.13;;;0.49;100.00
77431;BME280;66498;48.564;19.272;2023-12-29T04:28:13;97748.31;;;0.28;100.00
77431;BME280;66498;48.564;19.272;2023-12-29T04:30:38;97753.38;;;0.11;100.00
77431;BME280;66498;48.564;19.272;2023-12-29T04:33:04;97753.28;;;0.21;100.00
77431;BME280;66498;48.564;19.272;2023-12-29T04:35:29;97756.00;;;0.19;100.00
77431;BME280;66498;48.564;19.272;2023-12-29T04:37:55;97745.97;;;0.16;100.00
77431;BME280;66498;48.564;19.272;2023-12-29T04:40:20;97733.22;;;0.15;100.00
77431;BME280;66498;48.564;19.272;2023-12-29T04:42:46;97740.31;;;0.39;100.00
77431;BME280;66498;48.564;19.272;2023-12-29T04:45:11;97739.00;;;0.35;100.00
77431;BME280;66498;48.564;19.272;2023-12-29T04:47:37;97734.28;;;0.30;100.00
77431;BME280;66498;48.564;19.272;2023-12-29T04:50:03;97743.97;;;0.28;100.00
77431;BME280;66498;48.564;19.272;2023-12-29T04:52:30;97742.91;;;0.39;100.00
77431;BME280;66498;48.564;19.272;2023-12-29T04:54:56;97733.47;;;0.30;100.00
77431;BME280;66498;48.564;19.272;2023-12-29T04:57:21;97726.22;;;0.33;100.00
77431;BME280;66498;48.564;19.272;2023-12-29T04:59:47;97726.09;;;0.35;100.00
77431;BME280;66498;48.564;19.272;2023-12-29T05:02:12;97723.22;;;0.38;100.00
77431;BME280;66498;48.564;19.272;2023-12-29T05:04:38;97735.16;;;0.39;100.00
77431;BME280;66498;48.564;19.272;2023-12-29T05:07:05;97734.75;;;0.26;100.00
77431;BME280;66498;48.564;19.272;2023-12-29T05:09:31;97749.13;;;0.28;100.00
77431;BME280;66498;48.564;19.272;2023-12-29T05:11:56;97746.25;;;0.31;100.00
77431;BME280;66498;48.564;19.272;2023-12-29T05:14:22;97752.66;;;0.27;100.00
77431;BME280;66498;48.564;19.272;2023-12-29T05:16:47;97752.47;;;0.46;100.00
77431;BME280;66498;48.564;19.272;2023-12-29T05:19:13;97751.81;;;0.44;100.00
77431;BME280;66498;48.564;19.272;2023-12-29T05:21:38;97733.78;;;0.53;100.00
77431;BME280;66498;48.564;19.272;2023-12-29T05:24:03;97740.22;;;0.49;100.00
77431;BME280;66498;48.564;19.272;2023-12-29T05:26:30;97738.06;;;0.44;100.00
77431;BME280;66498;48.564;19.272;2023-12-29T05:28:56;97746.16;;;0.41;100.00
77431;BME280;66498;48.564;19.272;2023-12-29T05:31:21;97741.47;;;0.18;100.00
77431;BME280;66498;48.564;19.272;2023-12-29T05:33:47;97726.19;;;0.25;100.00
77431;BME280;66498;48.564;19.272;2023-12-29T05:36:12;97733.63;;;0.28;100.00
77431;BME280;66498;48.564;19.272;2023-12-29T05:38:37;97734.84;;;0.42;100.00
77431;BME280;66498;48.564;19.272;2023-12-29T05:41:04;97712.75;;;0.47;100.00
77431;BME280;66498;48.564;19.272;2023-12-29T05:43:33;97744.91;;;0.53;100.00
77431;BME280;66498;48.564;19.272;2023-12-29T05:46:01;97745.00;;;0.61;100.00
77431;BME280;66498;48.564;19.272;2023-12-29T05:48:26;97745.09;;;0.52;100.00
77431;BME280;66498;48.564;19.272;2023-12-29T05:50:52;97735.97;;;0.65;100.00
77431;BME280;66498;48.564;19.272;2023-12-29T05:53:18;97738.75;;;0.46;100.00
77431;BME280;66498;48.564;19.272;2023-12-29T05:55:44;97735.28;;;0.37;100.00
77431;BME280;66498;48.564;19.272;2023-12-29T05:58:10;97729.59;;;0.52;100.00
77431;BME280;66498;48.564;19.272;2023-12-29T06:00:36;97729.31;;;0.63;100.00
77431;BME280;66498;48.564;19.272;2023-12-29T06:03:02;97746.03;;;0.51;100.00
77431;BME280;66498;48.564;19.272;2023-12-29T06:05:29;97735.81;;;0.41;100.00
77431;BME280;66498;48.564;19.272;2023-12-29T06:07:55;97738.25;;;0.42;100.00
77431;BME280;66498;48.564;19.272;2023-12-29T06:10:20;97742.81;;;0.49;100.00
77431;BME280;66498;48.564;19.272;2023-12-29T06:12:46;97727.84;;;0.08;100.00
77431;BME280;66498;48.564;19.272;2023-12-29T06:15:12;97733.25;;;0.23;100.00
77431;BME280;66498;48.564;19.272;2023-12-29T06:17:39;97736.16;;;0.46;100.00
77431;BME280;66498;48.564;19.272;2023-12-29T06:20:06;97735.25;;;0.55;100.00
77431;BME280;66498;48.564;19.272;2023-12-29T06:22:32;97742.91;;;0.65;100.00
77431;BME280;66498;48.564;19.272;2023-12-29T06:24:58;97727.53;;;0.63;100.00
77431;BME280;66498;48.564;19.272;2023-12-29T06:27:25;97749.13;;;0.54;100.00
77431;BME280;66498;48.564;19.272;2023-12-29T06:29:50;97739.28;;;0.58;100.00
77431;BME280;66498;48.564;19.272;2023-12-29T06:32:16;97750.09;;;0.53;100.00
77431;BME280;66498;48.564;19.272;2023-12-29T06:34:41;97736.88;;;0.56;100.00
77431;BME280;66498;48.564;19.272;2023-12-29T06:37:07;97737.84;;;0.55;100.00
77431;BME280;66498;48.564;19.272;2023-12-29T06:39:32;97731.03;;;0.54;100.00
77431;BME280;66498;48.564;19.272;2023-12-29T06:41:58;97735.56;;;0.52;100.00
77431;BME280;66498;48.564;19.272;2023-12-29T06:44:23;97745.50;;;0.65;100.00
77431;BME280;66498;48.564;19.272;2023-12-29T06:46:49;97735.66;;;0.68;100.00
77431;BME280;66498;48.564;19.272;2023-12-29T06:49:14;97738.06;;;0.70;100.00
77431;BME280;66498;48.564;19.272;2023-12-29T06:51:39;97733.22;;;0.67;100.00
77431;BME280;66498;48.564;19.272;2023-12-29T06:54:06;97725.34;;;0.77;100.00
77431;BME280;66498;48.564;19.272;2023-12-29T06:56:32;97734.22;;;0.74;100.00
77431;BME280;66498;48.564;19.272;2023-12-29T06:58:57;97731.31;;;0.77;100.00
77431;BME280;66498;48.564;19.272;2023-12-29T07:01:23;97738.16;;;0.86;100.00
77431;BME280;66498;48.564;19.272;2023-12-29T07:03:49;97737.78;;;0.73;100.00
77431;BME280;66498;48.564;19.272;2023-12-29T07:06:18;97736.97;;;0.73;100.00
77431;BME280;66498;48.564;19.272;2023-12-29T07:08:43;97731.28;;;0.69;100.00
77431;BME280;66498;48.564;19.272;2023-12-29T07:11:10;97745.50;;;0.65;100.00
77431;BME280;66498;48.564;19.272;2023-12-29T07:13:36;97749.59;;;0.50;100.00
77431;BME280;66498;48.564;19.272;2023-12-29T07:16:02;97759.78;;;0.51;100.00
77431;BME280;66498;48.564;19.272;2023-12-29T07:18:27;97746.88;;;0.51;100.00
77431;BME280;66498;48.564;19.272;2023-12-29T07:20:53;97746.41;;;0.56;100.00
77431;BME280;66498;48.564;19.272;2023-12-29T07:23:19;97755.00;;;0.64;100.00
77431;BME280;66498;48.564;19.272;2023-12-29T07:25:44;97765.31;;;0.64;100.00
77431;BME280;66498;48.564;19.272;2023-12-29T07:28:10;97771.97;;;0.67;100.00
77431;BME280;66498;48.564;19.272;2023-12-29T07:30:35;97769.16;;;0.78;100.00
77431;BME280;66498;48.564;19.272;2023-12-29T07:33:01;97778.53;;;0.87;100.00
77431;BME280;66498;48.564;19.272;2023-12-29T07:35:27;97783.38;;;0.82;100.00
77431;BME280;66498;48.564;19.272;2023-12-29T07:37:53;97780.34;;;0.95;100.00
77431;BME280;66498;48.564;19.272;2023-12-29T07:40:18;97786.28;;;0.87;100.00
77431;BME280;66498;48.564;19.272;2023-12-29T07:42:45;97766.69;;;0.51;100.00
77431;BME280;66498;48.564;19.272;2023-12-29T07:45:11;97770.31;;;0.14;100.00
77431;BME280;66498;48.564;19.272;2023-12-29T07:47:37;97771.22;;;0.05;100.00
77431;BME280;66498;48.564;19.272;2023-12-29T07:50:03;97783.00;;;0.25;100.00
77431;BME280;66498;48.564;19.272;2023-12-29T07:52:30;97767.41;;;0.17;100.00
77431;BME280;66498;48.564;19.272;2023-12-29T07:54:56;97759.88;;;-0.03;100.00
77431;BME280;66498;48.564;19.272;2023-12-29T07:57:21;97773.34;;;-0.09;100.00
77431;BME280;66498;48.564;19.272;2023-12-29T07:59:47;97775.25;;;-0.11;100.00
77431;BME280;66498;48.564;19.272;2023-12-29T08:02:12;97773.66;;;-0.12;100.00
77431;BME280;66498;48.564;19.272;2023-12-29T08:04:38;97787.06;;;0.10;100.00
77431;BME280;66498;48.564;19.272;2023-12-29T08:07:04;97797.69;;;0.51;100.00
77431;BME280;66498;48.564;19.272;2023-12-29T08:09:29;97797.38;;;0.72;100.00
77431;BME280;66498;48.564;19.272;2023-12-29T08:11:55;97804.84;;;0.83;100.00
77431;BME280;66498;48.564;19.272;2023-12-29T08:14:21;97801.81;;;0.87;100.00
77431;BME280;66498;48.564;19.272;2023-12-29T08:16:46;97798.31;;;0.97;100.00
77431;BME280;66498;48.564;19.272;2023-12-29T08:19:12;97793.91;;;0.89;100.00
77431;BME280;66498;48.564;19.272;2023-12-29T08:21:37;97795.31;;;0.83;100.00
77431;BME280;66498;48.564;19.272;2023-12-29T08:24:03;97797.59;;;0.86;100.00
77431;BME280;66498;48.564;19.272;2023-12-29T08:26:29;97796.59;;;0.79;100.00
77431;BME280;66498;48.564;19.272;2023-12-29T08:28:54;97789.34;;;0.83;100.00
77431;BME280;66498;48.564;19.272;2023-12-29T08:31:20;97797.59;;;0.86;100.00
77431;BME280;66498;48.564;19.272;2023-12-29T08:33:48;97798.81;;;1.00;100.00
77431;BME280;66498;48.564;19.272;2023-12-29T08:36:18;97794.22;;;0.86;100.00
77431;BME280;66498;48.564;19.272;2023-12-29T08:38:43;97809.34;;;1.07;100.00
77431;BME280;66498;48.564;19.272;2023-12-29T08:41:09;97806.34;;;1.28;100.00
77431;BME280;66498;48.564;19.272;2023-12-29T08:43:35;97800.81;;;1.14;100.00
77431;BME280;66498;48.564;19.272;2023-12-29T08:46:02;97799.69;;;1.17;100.00
77431;BME280;66498;48.564;19.272;2023-12-29T08:48:28;97794.78;;;1.40;100.00
77431;BME280;66498;48.564;19.272;2023-12-29T08:50:53;97787.31;;;1.37;100.00
77431;BME280;66498;48.564;19.272;2023-12-29T08:53:19;97777.28;;;1.34;100.00
77431;BME280;66498;48.564;19.272;2023-12-29T08:55:44;97773.03;;;1.25;100.00
77431;BME280;66498;48.564;19.272;2023-12-29T08:58:11;97771.75;;;1.29;100.00
77431;BME280;66498;48.564;19.272;2023-12-29T09:00:37;97770.81;;;1.30;100.00
77431;BME280;66498;48.564;19.272;2023-12-29T09:03:02;97767.97;;;1.57;100.00
77431;BME280;66498;48.564;19.272;2023-12-29T09:05:28;97766.81;;;1.44;100.00
77431;BME280;66498;48.564;19.272;2023-12-29T09:07:53;97769.91;;;1.47;100.00
77431;BME280;66498;48.564;19.272;2023-12-29T09:10:19;97774.13;;;1.64;100.00
77431;BME280;66498;48.564;19.272;2023-12-29T09:12:46;97778.19;;;1.67;100.00
77431;BME280;66498;48.564;19.272;2023-12-29T09:15:12;97785.66;;;1.78;100.00
77431;BME280;66498;48.564;19.272;2023-12-29T09:17:37;97792.78;;;1.93;100.00
77431;BME280;66498;48.564;19.272;2023-12-29T09:20:03;97794.25;;;1.87;100.00
77431;BME280;66498;48.564;19.272;2023-12-29T09:22:29;97780.97;;;1.82;100.00
77431;BME280;66498;48.564;19.272;2023-12-29T09:24:54;97785.66;;;1.70;100.00
77431;BME280;66498;48.564;19.272;2023-12-29T09:27:21;97778.84;;;1.94;100.00
77431;BME280;66498;48.564;19.272;2023-12-29T09:29:46;97766.25;;;2.07;100.00
77431;BME280;66498;48.564;19.272;2023-12-29T09:32:12;97762.56;;;2.18;100.00
77431;BME280;66498;48.564;19.272;2023-12-29T09:34:37;97753.66;;;2.04;100.00
77431;BME280;66498;48.564;19.272;2023-12-29T09:37:03;97767.22;;;2.22;100.00
77431;BME280;66498;48.564;19.272;2023-12-29T09:39:28;97772.25;;;1.99;100.00
77431;BME280;66498;48.564;19.272;2023-12-29T09:41:57;97761.91;;;2.07;100.00
77431;BME280;66498;48.564;19.272;2023-12-29T09:44:24;97756.06;;;1.97;100.00
77431;BME280;66498;48.564;19.272;2023-12-29T09:46:53;97759.13;;;1.84;100.00
77431;BME280;66498;48.564;19.272;2023-12-29T09:49:19;97750.06;;;1.80;100.00
77431;BME280;66498;48.564;19.272;2023-12-29T09:51:45;97742.13;;;1.74;100.00
77431;BME280;66498;48.564;19.272;2023-12-29T09:54:12;97732.25;;;1.94;100.00
77431;BME280;66498;48.564;19.272;2023-12-29T09:56:39;97740.84;;;1.94;100.00
77431;BME280;66498;48.564;19.272;2023-12-29T09:59:05;97731.16;;;2.04;100.00
77431;BME280;66498;48.564;19.272;2023-12-29T10:01:32;97729.84;;;1.84;100.00
77431;BME280;66498;48.564;19.272;2023-12-29T10:03:58;97728.25;;;2.07;100.00
77431;BME280;66498;48.564;19.272;2023-12-29T10:06:24;97717.25;;;1.97;100.00
77431;BME280;66498;48.564;19.272;2023-12-29T10:08:51;97717.88;;;2.16;100.00
77431;BME280;66498;48.564;19.272;2023-12-29T10:11:20;97717.53;;;2.19;100.00
77431;BME280;66498;48.564;19.272;2023-12-29T10:13:49;97716.25;;;2.06;100.00
77431;BME280;66498;48.564;19.272;2023-12-29T10:17:03;97724.50;;;2.34;100.00
77431;BME280;66498;48.564;19.272;2023-12-29T10:19:37;97727.09;;;2.10;100.00
77431;BME280;66498;48.564;19.272;2023-12-29T10:22:30;97719.31;;;2.10;100.00
77431;BME280;66498;48.564;19.272;2023-12-29T10:24:57;97714.63;;;1.89;100.00
77431;BME280;66498;48.564;19.272;2023-12-29T10:27:25;97710.44;;;1.88;100.00
77431;BME280;66498;48.564;19.272;2023-12-29T10:29:52;97715.94;;;1.85;100.00
77431;BME280;66498;48.564;19.272;2023-12-29T10:32:17;97718.34;;;1.86;100.00
77431;BME280;66498;48.564;19.272;2023-12-29T10:34:43;97708.97;;;2.02;100.00
77431;BME280;66498;48.564;19.272;2023-12-29T10:37:08;97710.59;;;2.11;100.00
77431;BME280;66498;48.564;19.272;2023-12-29T10:39:54;97709.78;;;2.02;100.00
77431;BME280;66498;48.564;19.272;2023-12-29T10:42:20;97706.53;;;2.00;100.00
77431;BME280;66498;48.564;19.272;2023-12-29T10:44:46;97697.50;;;2.04;100.00
77431;BME280;66498;48.564;19.272;2023-12-29T10:47:12;97698.44;;;2.20;100.00
77431;BME280;66498;48.564;19.272;2023-12-29T10:49:40;97706.34;;;2.26;100.00
77431;BME280;66498;48.564;19.272;2023-12-29T10:54:38;97691.13;;;2.40;100.00
77431;BME280;66498;48.564;19.272;2023-12-29T10:57:04;97693.13;;;2.05;100.00
77431;BME280;66498;48.564;19.272;2023-12-29T10:59:29;97690.19;;;1.75;100.00
77431;BME280;66498;48.564;19.272;2023-12-29T11:01:56;97689.06;;;1.70;100.00
77431;BME280;66498;48.564;19.272;2023-12-29T11:04:22;97685.66;;;1.94;100.00
77431;BME280;66498;48.564;19.272;2023-12-29T11:06:48;97683.56;;;2.05;100.00
77431;BME280;66498;48.564;19.272;2023-12-29T11:09:29;97672.84;;;2.17;100.00
77431;BME280;66498;48.564;19.272;2023-12-29T11:12:04;97668.41;;;2.50;100.00
77431;BME280;66498;48.564;19.272;2023-12-29T11:14:31;97672.66;;;2.90;100.00
77431;BME280;66498;48.564;19.272;2023-12-29T11:16:58;97671.78;;;3.06;100.00
77431;BME280;66498;48.564;19.272;2023-12-29T11:19:26;97661.59;;;3.27;100.00
77431;BME280;66498;48.564;19.272;2023-12-29T11:21:56;97659.66;;;3.21;100.00
77431;BME280;66498;48.564;19.272;2023-12-29T11:24:22;97657.63;;;3.08;100.00
77431;BME280;66498;48.564;19.272;2023-12-29T11:26:51;97654.88;;;3.10;100.00
77431;BME280;66498;48.564;19.272;2023-12-29T11:29:18;97643.94;;;3.23;100.00
77431;BME280;66498;48.564;19.272;2023-12-29T11:31:45;97646.22;;;3.18;100.00
77431;BME280;66498;48.564;19.272;2023-12-29T11:34:29;97642.19;;;2.92;100.00
77431;BME280;66498;48.564;19.272;2023-12-29T11:37:11;97630.38;;;2.81;100.00
77431;BME280;66498;48.564;19.272;2023-12-29T11:39:57;97627.84;;;2.73;100.00
77431;BME280;66498;48.564;19.272;2023-12-29T11:42:34;97620.84;;;2.82;100.00
77431;BME280;66498;48.564;19.272;2023-12-29T11:45:23;97623.84;;;2.94;100.00
77431;BME280;66498;48.564;19.272;2023-12-29T11:47:49;97613.13;;;2.97;100.00
77431;BME280;66498;48.564;19.272;2023-12-29T11:50:33;97623.44;;;3.05;100.00
77431;BME280;66498;48.564;19.272;2023-12-29T11:53:00;97618.84;;;3.15;100.00
77431;BME280;66498;48.564;19.272;2023-12-29T11:55:30;97622.13;;;3.32;100.00
77431;BME280;66498;48.564;19.272;2023-12-29T11:57:57;97620.06;;;3.27;100.00
77431;BME280;66498;48.564;19.272;2023-12-29T12:00:45;97612.50;;;3.18;100.00
77431;BME280;66498;48.564;19.272;2023-12-29T12:05:52;97615.16;;;3.32;100.00
77431;BME280;66498;48.564;19.272;2023-12-29T12:08:36;97614.59;;;3.45;100.00
77431;BME280;66498;48.564;19.272;2023-12-29T12:13:55;97612.78;;;3.46;100.00
77431;BME280;66498;48.564;19.272;2023-12-29T12:16:46;97605.00;;;3.46;100.00
77431;BME280;66498;48.564;19.272;2023-12-29T12:19:13;97606.78;;;3.68;100.00
77431;BME280;66498;48.564;19.272;2023-12-29T12:21:40;97599.81;;;3.46;100.00
77431;BME280;66498;48.564;19.272;2023-12-29T12:24:07;97592.69;;;3.48;100.00
77431;BME280;66498;48.564;19.272;2023-12-29T12:26:33;97595.53;;;3.53;100.00
77431;BME280;66498;48.564;19.272;2023-12-29T12:29:00;97589.75;;;3.66;100.00
77431;BME280;66498;48.564;19.272;2023-12-29T12:31:26;97597.13;;;3.77;100.00
77431;BME280;66498;48.564;19.272;2023-12-29T12:33:59;97593.63;;;3.70;100.00
77431;BME280;66498;48.564;19.272;2023-12-29T12:36:28;97590.84;;;3.71;100.00
77431;BME280;66498;48.564;19.272;2023-12-29T12:38:57;97590.38;;;3.91;100.00
77431;BME280;66498;48.564;19.272;2023-12-29T12:41:26;97588.81;;;3.96;100.00
77431;BME280;66498;48.564;19.272;2023-12-29T12:46:27;97594.41;;;4.23;100.00
77431;BME280;66498;48.564;19.272;2023-12-29T12:48:53;97591.25;;;4.27;100.00
77431;BME280;66498;48.564;19.272;2023-12-29T12:51:21;97586.94;;;4.35;100.00
77431;BME280;66498;48.564;19.272;2023-12-29T12:53:47;97600.31;;;4.32;100.00
77431;BME280;66498;48.564;19.272;2023-12-29T12:56:15;97591.97;;;4.07;100.00
77431;BME280;66498;48.564;19.272;2023-12-29T12:58:42;97597.63;;;4.25;100.00
77431;BME280;66498;48.564;19.272;2023-12-29T13:01:08;97589.00;;;4.24;100.00